Grattan, Minnesota
Current Conditions -  °F | °C
As of 1:33 AM on Thursday 23 Oct 2014 (Local Time) from KFOZ Reporting Station
Moderate Rain Moderate Rain  
Wind Chill: 44°   Ceiling: 6000
Heat Index: 48°   Visibility: 7mi
Dew Point: 46°   Wind: 9mph
Humidity: 93%   Direction: 170°S
Pressure: 29.93"   Gusts: NA
Location:  47.8312°N, 94.1459°W
Report Text: KFOZ 230633Z AUTO 17008KT 7SM RA SCT010 SCT022 OVC060 09/08 A2993 RMK AO2 P0004
Loading
Personal Weather Stations






























Interactive Weather Map
Tropical Storm Tracking
New forecast layout! Learn more

10-Day Weather Forecast

Advertisements
Track Severe Weather on mobile